createdAt,value
2022-12-29T00:02:20.799Z,101088.31
2022-12-29T00:04:53.967Z,101091.10
2022-12-29T00:07:26.747Z,101089.48
2022-12-29T00:09:59.755Z,101099.21
2022-12-29T00:12:34.298Z,101089.09
2022-12-29T00:15:25.254Z,101092.78
2022-12-29T00:17:58.045Z,101097.97
2022-12-29T00:20:48.480Z,101091.42
2022-12-29T00:23:40.490Z,101090.18
2022-12-29T00:26:36.432Z,101096.27
2022-12-29T00:29:28.989Z,101086.03
2022-12-29T00:32:19.702Z,101082.78
2022-12-29T00:35:10.469Z,101085.73
2022-12-29T00:38:05.610Z,101087.80
2022-12-29T00:40:57.234Z,101093.71
2022-12-29T00:43:47.973Z,101091.01
2022-12-29T00:46:20.733Z,101084.59
2022-12-29T00:49:12.296Z,101088.78
2022-12-29T00:51:45.617Z,101086.56
2022-12-29T00:54:19.186Z,101080.52
2022-12-29T00:56:54.198Z,101079.79
2022-12-29T00:59:27.619Z,101071.57
2022-12-29T01:02:02.230Z,101066.44
2022-12-29T01:04:35.406Z,101070.12
2022-12-29T01:07:09.047Z,101075.13
2022-12-29T01:10:00.886Z,101079.91
2022-12-29T01:12:46.489Z,101069.86
2022-12-29T01:15:19.451Z,101073.36
2022-12-29T01:17:53.938Z,101074.09
2022-12-29T01:20:28.378Z,101087.70
2022-12-29T01:23:02.507Z,101087.53
2022-12-29T01:25:35.360Z,101084.41
2022-12-29T01:28:09.561Z,101084.58
2022-12-29T01:30:43.974Z,101077.05
2022-12-29T01:33:18.827Z,101079.61
2022-12-29T01:35:51.547Z,101087.87
2022-12-29T01:38:24.476Z,101078.88
2022-12-29T01:40:57.783Z,101083.47
2022-12-29T01:43:55.070Z,101085.30
2022-12-29T01:46:43.829Z,101091.17
2022-12-29T01:49:26.306Z,101092.28
2022-12-29T01:52:02.667Z,101093.39
2022-12-29T01:54:46.292Z,101092.84
2022-12-29T01:57:27.765Z,101098.36
2022-12-29T02:00:10.921Z,101097.45
2022-12-29T02:02:53.356Z,101099.26
2022-12-29T02:06:09.865Z,101100.06
2022-12-29T02:08:43.677Z,101096.80
2022-12-29T02:11:17.088Z,101105.27
2022-12-29T02:13:50.025Z,101101.06
2022-12-29T02:16:40.102Z,101104.73
2022-12-29T02:19:38.900Z,101100.39
2022-12-29T02:22:31.803Z,101107.57
2022-12-29T02:25:17.656Z,101111.24
2022-12-29T02:28:28.570Z,101113.45
2022-12-29T02:31:23.986Z,101119.88
2022-12-29T02:34:16.746Z,101126.88
2022-12-29T02:37:07.593Z,101139.53
2022-12-29T02:40:03.217Z,101141.75
2022-12-29T02:42:50.082Z,101142.30
2022-12-29T02:45:36.472Z,101134.92
2022-12-29T02:48:34.069Z,101142.45
2022-12-29T02:51:32.656Z,101135.30
2022-12-29T02:54:24.471Z,101134.42
2022-12-29T02:56:57.430Z,101127.48
2022-12-29T02:59:30.489Z,101137.91
2022-12-29T03:02:25.566Z,101141.77
2022-12-29T03:05:24.485Z,101136.83
2022-12-29T03:08:27.372Z,101145.64
2022-12-29T03:11:07.159Z,101145.66
2022-12-29T03:14:07.656Z,101152.42
2022-12-29T03:16:52.882Z,101151.90
2022-12-29T03:19:36.965Z,101148.05
2022-12-29T03:22:32.073Z,101144.35
2022-12-29T03:25:26.030Z,101158.27
2022-12-29T03:28:10.458Z,101152.43
2022-12-29T03:30:45.924Z,101157.56
2022-12-29T03:33:26.010Z,101153.53
2022-12-29T03:36:08.288Z,101165.08
2022-12-29T03:39:02.498Z,101174.42
2022-12-29T03:41:36.713Z,101168.73
2022-12-29T03:44:10.801Z,101174.22
2022-12-29T03:46:44.094Z,101179.14
2022-12-29T03:49:16.979Z,101174.03
2022-12-29T03:51:52.080Z,101177.27
2022-12-29T03:54:25.164Z,101178.00
2022-12-29T03:56:58.272Z,101180.19
2022-12-29T03:59:33.485Z,101182.75
2022-12-29T04:02:07.631Z,101177.98
2022-12-29T04:04:40.766Z,101173.61
2022-12-29T04:07:13.611Z,101178.16
2022-12-29T04:09:47.267Z,101174.86
2022-12-29T04:12:21.986Z,101169.34
2022-12-29T04:14:54.834Z,101168.80
2022-12-29T04:17:28.031Z,101176.85
2022-12-29T04:20:02.422Z,101180.16
2022-12-29T04:22:36.809Z,101178.11
2022-12-29T04:25:10.592Z,101185.98
2022-12-29T04:27:43.537Z,101188.17
2022-12-29T04:30:21.364Z,101190.39
2022-12-29T04:32:55.944Z,101190.60
2022-12-29T04:35:28.946Z,101195.38
2022-12-29T04:38:01.752Z,101183.48
2022-12-29T04:40:34.903Z,101172.09
2022-12-29T04:43:08.031Z,101182.56
2022-12-29T04:45:48.725Z,101189.00
2022-12-29T04:48:32.029Z,101178.00
2022-12-29T04:51:06.661Z,101176.55
2022-12-29T04:53:41.266Z,101176.74
2022-12-29T04:56:14.521Z,101178.23
2022-12-29T04:58:47.647Z,101172.54
2022-12-29T05:01:20.569Z,101181.32
2022-12-29T05:03:54.507Z,101169.41
2022-12-29T05:06:28.847Z,101174.19
2022-12-29T05:09:01.551Z,101167.25
2022-12-29T05:11:35.307Z,101173.67
2022-12-29T05:14:08.573Z,101174.75
2022-12-29T05:16:42.242Z,101176.77
2022-12-29T05:19:15.398Z,101172.14
2022-12-29T05:21:48.532Z,101173.08
2022-12-29T05:24:21.786Z,101175.66
2022-12-29T05:26:55.490Z,101179.69
2022-12-29T05:29:30.120Z,101179.14
2022-12-29T05:32:04.210Z,101181.02
2022-12-29T05:34:37.400Z,101184.10
2022-12-29T05:37:10.797Z,101174.78
2022-12-29T05:39:45.500Z,101173.31
2022-12-29T05:42:20.017Z,101178.45
2022-12-29T05:45:11.870Z,101176.41
2022-12-29T05:47:49.154Z,101174.78
2022-12-29T05:50:23.792Z,101185.38
2022-12-29T05:53:04.719Z,101194.55
2022-12-29T05:55:40.010Z,101194.00
2022-12-29T05:58:12.797Z,101201.70
2022-12-29T06:00:46.807Z,101202.98
2022-12-29T06:03:20.570Z,101208.29
2022-12-29T06:05:54.007Z,101218.17
2022-12-29T06:08:28.408Z,101221.84
2022-12-29T06:11:01.752Z,101222.05
2022-12-29T06:13:36.832Z,101225.52
2022-12-29T06:16:10.407Z,101229.37
2022-12-29T06:18:45.185Z,101231.21
2022-12-29T06:21:18.731Z,101225.34
2022-12-29T06:23:52.419Z,101229.01
2022-12-29T06:26:26.195Z,101233.98
2022-12-29T06:28:59.749Z,101236.16
2022-12-29T06:31:33.523Z,101236.16
2022-12-29T06:34:08.664Z,101241.47
2022-12-29T06:36:42.911Z,101241.47
2022-12-29T06:39:16.856Z,101238.89
2022-12-29T06:41:56.662Z,101238.16
2022-12-29T06:44:41.753Z,101232.11
2022-12-29T06:47:14.949Z,101231.52
2022-12-29T06:49:48.493Z,101231.16
2022-12-29T06:52:21.695Z,101223.23
2022-12-29T06:54:54.949Z,101223.23
2022-12-29T06:57:28.188Z,101216.97
2022-12-29T07:00:01.386Z,101213.11
2022-12-29T07:02:34.408Z,101203.36
2022-12-29T07:05:08.978Z,101209.38
2022-12-29T07:07:42.177Z,101210.28
2022-12-29T07:10:15.913Z,101211.16
2022-12-29T07:12:49.567Z,101217.73
2022-12-29T07:15:23.186Z,101221.73
2022-12-29T07:17:56.338Z,101233.12
2022-12-29T07:20:29.455Z,101234.89
2022-12-29T07:23:02.619Z,101239.09
2022-12-29T07:25:37.253Z,101230.80
2022-12-29T07:28:10.716Z,101226.15
2022-12-29T07:30:44.042Z,101234.03
2022-12-29T07:33:17.073Z,101231.98
2022-12-29T07:35:51.154Z,101232.67
2022-12-29T07:38:24.207Z,101233.89
2022-12-29T07:41:01.316Z,101238.44
2022-12-29T07:43:34.623Z,101241.14
2022-12-29T07:46:55.781Z,101237.80
2022-12-29T07:49:00.329Z,101243.59
2022-12-29T07:51:34.084Z,101235.44
2022-12-29T07:54:07.387Z,101240.89
2022-12-29T07:56:40.320Z,101231.66
2022-12-29T07:59:14.947Z,101239.89
2022-12-29T08:01:47.796Z,101241.12
2022-12-29T08:04:20.867Z,101234.05
2022-12-29T08:06:53.789Z,101232.31
2022-12-29T08:09:27.132Z,101227.10
2022-12-29T08:12:00.134Z,101224.48
2022-12-29T08:14:33.428Z,101223.13
2022-12-29T08:17:06.790Z,101228.00
2022-12-29T08:19:41.284Z,101225.03
2022-12-29T08:26:09.641Z,101206.84
2022-12-29T08:28:42.686Z,101196.59
2022-12-29T08:31:15.502Z,101197.31
2022-12-29T08:33:48.507Z,101196.35
2022-12-29T08:36:22.385Z,101193.39
2022-12-29T08:38:55.474Z,101197.25
2022-12-29T08:41:28.337Z,101197.25
2022-12-29T08:44:01.189Z,101189.69
2022-12-29T08:46:34.083Z,101177.36
2022-12-29T08:49:06.919Z,101175.28
2022-12-29T08:51:41.033Z,101181.09
2022-12-29T08:54:14.029Z,101176.75
2022-12-29T08:56:46.982Z,101176.80
2022-12-29T08:59:21.446Z,101175.77
2022-12-29T09:01:54.660Z,101176.26
2022-12-29T09:04:29.650Z,101170.84
2022-12-29T09:07:02.875Z,101163.38
2022-12-29T09:09:36.323Z,101158.93
2022-12-29T09:12:10.886Z,101163.63
2022-12-29T09:14:44.354Z,101157.58
2022-12-29T09:17:35.239Z,101153.13
2022-12-29T09:20:09.998Z,101159.19
2022-12-29T09:22:43.310Z,101144.03
2022-12-29T09:25:16.686Z,101144.90
2022-12-29T09:27:50.315Z,101151.12
2022-12-29T09:30:25.012Z,101147.18
2022-12-29T09:32:58.063Z,101152.08
2022-12-29T09:35:30.838Z,101146.42
2022-12-29T09:38:03.851Z,101143.77
2022-12-29T09:40:36.930Z,101145.45
2022-12-29T09:43:42.724Z,101139.09
2022-12-29T09:46:22.934Z,101132.92
2022-12-29T09:49:12.381Z,101124.63
2022-12-29T09:51:49.956Z,101122.91
2022-12-29T09:55:11.967Z,101127.25
2022-12-29T09:57:50.676Z,101125.44
2022-12-29T10:00:27.600Z,101130.84
2022-12-29T10:03:04.318Z,101132.83
2022-12-29T10:05:54.378Z,101134.78
2022-12-29T10:08:46.904Z,101132.91
2022-12-29T10:11:39.967Z,101139.12
2022-12-29T10:14:34.001Z,101142.01
2022-12-29T10:17:37.786Z,101140.79
2022-12-29T10:20:42.573Z,101139.91
2022-12-29T10:23:44.611Z,101140.05
2022-12-29T10:26:27.072Z,101135.20
2022-12-29T10:29:25.181Z,101134.78
2022-12-29T10:32:02.002Z,101137.23
2022-12-29T10:34:47.915Z,101142.25
2022-12-29T10:38:03.198Z,101138.83
2022-12-29T10:41:00.069Z,101135.61
2022-12-29T10:43:40.789Z,101139.23
2022-12-29T10:46:26.320Z,101141.08
2022-12-29T10:48:59.395Z,101141.62
2022-12-29T10:51:37.040Z,101140.17
2022-12-29T10:54:20.250Z,101148.28
2022-12-29T10:57:28.725Z,101137.11
2022-12-29T11:00:01.983Z,101141.28
2022-12-29T11:02:55.572Z,101141.38
2022-12-29T11:05:54.024Z,101141.73
2022-12-29T11:08:32.524Z,101137.95
2022-12-29T11:11:11.765Z,101139.84
2022-12-29T11:13:55.270Z,101142.81
2022-12-29T11:16:33.354Z,101137.50
2022-12-29T11:19:06.877Z,101141.77
2022-12-29T11:21:45.908Z,101135.66
2022-12-29T11:24:29.191Z,101127.41
2022-12-29T11:27:26.779Z,101126.26
2022-12-29T11:29:59.741Z,101127.84
2022-12-29T11:32:33.188Z,101126.46
2022-12-29T11:35:07.786Z,101125.71
2022-12-29T11:37:43.657Z,101123.12
2022-12-29T11:40:22.252Z,101119.91
2022-12-29T11:42:59.888Z,101119.00
2022-12-29T11:45:36.656Z,101127.45
2022-12-29T11:48:13.344Z,101129.59
2022-12-29T11:50:52.877Z,101125.27
2022-12-29T11:53:29.625Z,101118.20
2022-12-29T11:56:10.426Z,101114.12
2022-12-29T11:58:43.318Z,101109.41
2022-12-29T12:01:27.081Z,101108.59
2022-12-29T12:04:08.051Z,101096.81
2022-12-29T12:07:15.374Z,101101.98
2022-12-29T12:10:07.883Z,101099.55
2022-12-29T12:12:46.218Z,101099.22
2022-12-29T12:15:24.096Z,101093.35
2022-12-29T12:18:15.111Z,101092.27
2022-12-29T12:20:58.752Z,101093.31
2022-12-29T12:24:06.512Z,101089.97
2022-12-29T12:27:00.547Z,101094.00
2022-12-29T12:29:56.681Z,101090.22
2022-12-29T12:32:50.792Z,101097.52
2022-12-29T12:35:37.232Z,101094.34
2022-12-29T12:38:32.453Z,101098.37
2022-12-29T12:41:24.585Z,101100.20
2022-12-29T12:44:05.153Z,101100.78
2022-12-29T12:47:08.753Z,101106.78
2022-12-29T12:50:06.549Z,101100.38
2022-12-29T12:53:17.326Z,101100.23
2022-12-29T12:56:03.818Z,101105.04
2022-12-29T12:59:10.013Z,101103.36
2022-12-29T13:02:05.808Z,101104.65
2022-12-29T13:04:58.770Z,101096.05
2022-12-29T13:08:09.345Z,101109.59
2022-12-29T13:11:26.463Z,101107.84
2022-12-29T13:14:16.109Z,101105.20
2022-12-29T13:16:56.307Z,101103.50
2022-12-29T13:19:54.182Z,101119.31
2022-12-29T13:22:43.922Z,101123.31
2022-12-29T13:25:45.315Z,101118.47
2022-12-29T13:28:26.026Z,101109.33
2022-12-29T13:31:22.846Z,101116.84
2022-12-29T13:34:12.198Z,101114.58
2022-12-29T13:37:06.965Z,101113.41
2022-12-29T13:39:44.792Z,101114.47
2022-12-29T13:42:18.727Z,101116.03
2022-12-29T13:45:08.152Z,101119.08
2022-12-29T13:47:51.139Z,101111.61
2022-12-29T13:50:27.821Z,101110.47
2022-12-29T13:53:28.852Z,101111.80
2022-12-29T13:56:38.312Z,101115.35
2022-12-29T13:59:39.289Z,101121.32
2022-12-29T14:02:22.932Z,101114.28
2022-12-29T14:05:02.400Z,101114.86
2022-12-29T14:07:42.084Z,101116.70
2022-12-29T14:10:42.419Z,101115.92
2022-12-29T14:13:23.530Z,101119.05
2022-12-29T14:15:59.495Z,101115.92
2022-12-29T14:18:35.366Z,101120.56
2022-12-29T14:21:18.336Z,101116.70
2022-12-29T14:23:55.244Z,101112.67
2022-12-29T14:26:37.288Z,101106.73
2022-12-29T14:29:33.242Z,101108.58
2022-12-29T14:32:28.505Z,101117.05
2022-12-29T14:35:05.067Z,101116.15
2022-12-29T14:37:40.357Z,101112.28
2022-12-29T14:40:24.394Z,101108.09
2022-12-29T14:42:58.860Z,101112.70
2022-12-29T14:45:33.210Z,101107.78
2022-12-29T14:48:25.576Z,101104.66
2022-12-29T14:50:58.941Z,101110.59
2022-12-29T14:53:51.776Z,101100.12
2022-12-29T14:56:32.461Z,101103.59
2022-12-29T14:59:06.634Z,101106.24
2022-12-29T15:01:50.351Z,101111.08
2022-12-29T15:04:29.687Z,101113.50
2022-12-29T15:07:04.815Z,101111.15
2022-12-29T15:09:50.093Z,101118.72
2022-12-29T15:12:50.369Z,101116.56
2022-12-29T15:15:26.997Z,101116.47
2022-12-29T15:17:59.909Z,101118.02
2022-12-29T15:20:34.519Z,101122.63
2022-12-29T15:23:15.639Z,101119.37
2022-12-29T15:25:59.062Z,101113.31
2022-12-29T15:28:45.857Z,101117.18
2022-12-29T15:31:30.130Z,101112.60
2022-12-29T15:34:14.632Z,101109.29
2022-12-29T15:36:47.509Z,101096.76
2022-12-29T15:39:33.905Z,101091.25
2022-12-29T15:42:31.261Z,101093.28
2022-12-29T15:45:11.808Z,101097.88
2022-12-29T15:47:48.713Z,101093.83
2022-12-29T15:50:31.910Z,101083.13
2022-12-29T15:53:05.880Z,101097.14
2022-12-29T15:55:42.389Z,101101.01
2022-12-29T15:58:22.818Z,101098.27
2022-12-29T16:01:01.168Z,101101.23
2022-12-29T16:03:38.464Z,101102.72
2022-12-29T16:06:30.596Z,101111.22
2022-12-29T16:09:12.799Z,101104.06
2022-12-29T16:11:51.596Z,101101.55
2022-12-29T16:14:34.951Z,101094.56
2022-12-29T16:17:08.567Z,101096.41
2022-12-29T16:19:43.711Z,101097.69
2022-12-29T16:22:26.717Z,101107.99
2022-12-29T16:25:05.132Z,101105.26
2022-12-29T16:27:44.391Z,101103.03
2022-12-29T16:30:33.503Z,101099.72
2022-12-29T16:33:06.463Z,101105.03
2022-12-29T16:35:46.872Z,101104.13
2022-12-29T16:38:25.101Z,101092.56
2022-12-29T16:41:05.537Z,101092.95
2022-12-29T16:43:41.471Z,101098.01
2022-12-29T16:46:30.017Z,101095.82
2022-12-29T16:49:03.094Z,101092.31
2022-12-29T16:51:38.480Z,101088.03
2022-12-29T16:54:18.937Z,101086.12
2022-12-29T16:56:52.192Z,101087.73
2022-12-29T16:59:38.703Z,101093.98
2022-12-29T17:02:17.556Z,101068.39
2022-12-29T17:04:51.781Z,101069.06
2022-12-29T17:07:28.067Z,101067.03
2022-12-29T17:10:01.050Z,101079.53
2022-12-29T17:12:36.640Z,101080.46
2022-12-29T17:15:34.360Z,101071.80
2022-12-29T17:18:13.962Z,101070.51
2022-12-29T17:20:44.986Z,101066.12
2022-12-29T17:23:26.079Z,101063.55
2022-12-29T17:25:54.467Z,101052.70
2022-12-29T17:28:30.395Z,101047.39
2022-12-29T17:31:07.714Z,101061.95
2022-12-29T17:33:43.032Z,101062.84
2022-12-29T17:36:16.179Z,101064.72
2022-12-29T17:38:49.027Z,101060.11
2022-12-29T17:41:21.962Z,101055.02
2022-12-29T17:43:55.562Z,101049.55
2022-12-29T17:46:29.393Z,101054.31
2022-12-29T17:49:02.597Z,101054.09
2022-12-29T17:51:36.771Z,101053.13
2022-12-29T17:54:25.280Z,101050.70
2022-12-29T17:56:58.259Z,101049.97
2022-12-29T17:59:31.194Z,101042.08
2022-12-29T18:02:04.083Z,101041.92
2022-12-29T18:04:37.544Z,101038.95
2022-12-29T18:07:12.774Z,101034.73
2022-12-29T18:09:45.670Z,101047.61
2022-12-29T18:12:31.835Z,101038.05
2022-12-29T18:15:04.987Z,101035.80
2022-12-29T18:17:38.037Z,101032.99
2022-12-29T18:20:10.820Z,101037.02
2022-12-29T18:22:44.071Z,101032.57
2022-12-29T18:25:30.190Z,101029.84
2022-12-29T18:28:03.559Z,101022.49
2022-12-29T18:30:38.239Z,101020.08
2022-12-29T18:33:23.394Z,101023.00
2022-12-29T18:35:58.908Z,101017.50
2022-12-29T18:38:32.353Z,101017.85
2022-12-29T18:41:05.166Z,101015.44
2022-12-29T18:43:38.085Z,101017.66
2022-12-29T18:46:11.338Z,101020.01
2022-12-29T18:48:44.590Z,101021.84
2022-12-29T18:51:21.240Z,101019.94
2022-12-29T18:53:54.973Z,101013.66
2022-12-29T18:56:28.312Z,101011.00
2022-12-29T18:59:02.819Z,101009.52
2022-12-29T19:01:35.667Z,101008.00
2022-12-29T19:04:08.562Z,100998.23
2022-12-29T19:06:41.734Z,100992.46
2022-12-29T19:09:14.719Z,100999.30
2022-12-29T19:11:47.778Z,100997.84
2022-12-29T19:14:21.206Z,100997.84
2022-12-29T19:16:54.059Z,101006.05
2022-12-29T19:19:27.179Z,100987.86
2022-12-29T19:21:59.882Z,100999.45
2022-12-29T19:24:33.235Z,100997.45
2022-12-29T19:27:06.627Z,101000.04
2022-12-29T19:29:40.280Z,100995.04
2022-12-29T19:32:13.554Z,100982.55
2022-12-29T19:34:48.010Z,100980.70
2022-12-29T19:37:20.928Z,100980.35
2022-12-29T19:39:54.316Z,100977.39
2022-12-29T19:42:27.227Z,100970.52
2022-12-29T19:45:00.216Z,100969.73
2022-12-29T19:47:33.851Z,100968.84
2022-12-29T19:50:09.284Z,100977.11
2022-12-29T19:52:43.158Z,100984.23
2022-12-29T19:55:19.849Z,100976.10
2022-12-29T19:57:53.107Z,100977.94
2022-12-29T20:00:26.454Z,100977.20
2022-12-29T20:02:59.509Z,100973.84
2022-12-29T20:05:33.239Z,100971.27
2022-12-29T20:08:06.624Z,100970.28
2022-12-29T20:10:40.501Z,100973.02
2022-12-29T20:13:13.783Z,100970.08
2022-12-29T20:15:46.618Z,100968.02
2022-12-29T20:18:25.179Z,100971.30
2022-12-29T20:20:54.225Z,100970.55
2022-12-29T20:23:27.110Z,100963.13
2022-12-29T20:26:00.914Z,100968.95
2022-12-29T20:28:34.318Z,100967.81
2022-12-29T20:31:12.516Z,100974.27
2022-12-29T20:33:45.391Z,100974.66
2022-12-29T20:36:23.292Z,100971.02
2022-12-29T20:38:59.066Z,100973.95
2022-12-29T20:41:32.373Z,100975.39
2022-12-29T20:44:05.706Z,100987.55
2022-12-29T20:46:43.566Z,100989.73
2022-12-29T20:49:15.479Z,100991.25
2022-12-29T20:52:05.886Z,100989.81
2022-12-29T20:54:24.123Z,100989.81
2022-12-29T20:56:57.190Z,100983.91
2022-12-29T20:59:30.784Z,100976.92
2022-12-29T21:02:04.707Z,100980.63
2022-12-29T21:05:13.423Z,100974.58
2022-12-29T21:07:18.030Z,100980.16
2022-12-29T21:09:48.036Z,100972.12
2022-12-29T21:12:21.182Z,100970.83
2022-12-29T21:14:54.001Z,100973.95
2022-12-29T21:17:27.022Z,100970.08
2022-12-29T21:19:59.867Z,100967.27
2022-12-29T21:22:34.794Z,100963.80
2022-12-29T21:25:08.775Z,100973.72
2022-12-29T21:27:45.041Z,100978.48
2022-12-29T21:30:18.129Z,100979.58
2022-12-29T21:32:51.777Z,100969.27
2022-12-29T21:35:24.614Z,100979.42
2022-12-29T21:37:57.404Z,100970.91
2022-12-29T21:40:30.189Z,100971.06
2022-12-29T21:43:03.139Z,100973.05
2022-12-29T21:45:36.194Z,100971.02
2022-12-29T21:48:21.814Z,100971.17
2022-12-29T21:51:19.882Z,100971.17
2022-12-29T21:54:00.876Z,100960.86
2022-12-29T21:56:33.845Z,100948.32
2022-12-29T21:59:24.716Z,100944.22
2022-12-29T22:02:15.267Z,100957.27
2022-12-29T22:05:06.387Z,100963.56
2022-12-29T22:07:57.086Z,100951.59
2022-12-29T22:11:04.307Z,100952.50
2022-12-29T22:13:39.822Z,100951.75
2022-12-29T22:16:15.853Z,100946.59
2022-12-29T22:18:48.479Z,100945.30
2022-12-29T22:21:21.580Z,100948.78
2022-12-29T22:23:54.421Z,100944.38
2022-12-29T22:26:27.251Z,100952.66
2022-12-29T22:29:00.150Z,100951.52
2022-12-29T22:31:34.200Z,100949.09
2022-12-29T22:34:06.722Z,100951.83
2022-12-29T22:36:39.147Z,100951.75
2022-12-29T22:39:12.094Z,100946.44
2022-12-29T22:41:44.773Z,100946.59
2022-12-29T22:44:17.697Z,100941.08
2022-12-29T22:46:50.784Z,100942.13
2022-12-29T22:49:23.811Z,100931.06
2022-12-29T22:51:56.564Z,100933.56
2022-12-29T22:54:29.300Z,100931.13
2022-12-29T22:57:02.089Z,100925.82
2022-12-29T22:59:35.428Z,100927.66
2022-12-29T23:02:08.437Z,100931.64
2022-12-29T23:07:16.362Z,100924.60
2022-12-29T23:09:49.049Z,100931.95
2022-12-29T23:12:22.455Z,100937.26
2022-12-29T23:14:55.234Z,100929.52
2022-12-29T23:17:28.631Z,100929.31
2022-12-29T23:20:01.204Z,100935.53
2022-12-29T23:22:34.809Z,100933.09
2022-12-29T23:25:07.896Z,100934.94
2022-12-29T23:27:41.194Z,100932.11
2022-12-29T23:30:14.187Z,100937.42
2022-12-29T23:32:47.475Z,100944.03
2022-12-29T23:35:20.269Z,100943.79
2022-12-29T23:37:53.065Z,100944.88
2022-12-29T23:40:25.907Z,100954.41
2022-12-29T23:42:58.828Z,100946.91
2022-12-29T23:45:31.593Z,100948.59
2022-12-29T23:48:04.556Z,100944.09
2022-12-29T23:50:43.078Z,100946.28
2022-12-29T23:53:16.367Z,100937.41
2022-12-29T23:55:53.991Z,100940.28
2022-12-29T23:58:26.874Z,100944.94
